createdAt,value
2022-11-01T00:02:10.555Z,7.90
2022-11-01T00:04:37.924Z,7.72
2022-11-01T00:07:05.289Z,7.13
2022-11-01T00:09:32.366Z,7.18
2022-11-01T00:11:59.503Z,7.68
2022-11-01T00:14:26.370Z,6.88
2022-11-01T00:16:53.215Z,6.97
2022-11-01T00:19:20.119Z,7.35
2022-11-01T00:21:46.921Z,7.05
2022-11-01T00:24:13.762Z,6.50
2022-11-01T00:26:40.687Z,5.63
2022-11-01T00:29:07.653Z,4.55
2022-11-01T00:31:34.787Z,5.15
2022-11-01T00:34:03.922Z,5.07
2022-11-01T00:36:31.028Z,5.65
2022-11-01T00:38:57.933Z,5.68
2022-11-01T00:41:24.748Z,5.05
2022-11-01T00:43:51.553Z,4.82
2022-11-01T00:46:18.569Z,4.68
2022-11-01T00:48:45.476Z,4.70
2022-11-01T00:51:12.235Z,4.53
2022-11-01T00:53:39.090Z,4.53
2022-11-01T00:56:07.135Z,3.88
2022-11-01T00:58:35.464Z,4.15
2022-11-01T01:01:02.721Z,3.63
2022-11-01T01:03:29.683Z,3.35
2022-11-01T01:05:56.678Z,2.47
2022-11-01T01:08:24.362Z,2.80
2022-11-01T01:10:51.320Z,1.92
2022-11-01T01:13:18.817Z,1.90
2022-11-01T01:15:46.042Z,1.75
2022-11-01T01:18:13.301Z,1.95
2022-11-01T01:20:40.264Z,1.75
2022-11-01T01:23:07.294Z,1.70
2022-11-01T01:25:34.141Z,2.10
2022-11-01T01:28:01.417Z,1.85
2022-11-01T01:30:28.612Z,2.10
2022-11-01T01:32:55.456Z,1.50
2022-11-01T01:35:22.238Z,1.50
2022-11-01T01:37:49.090Z,1.58
2022-11-01T01:40:16.030Z,1.70
2022-11-01T01:42:43.139Z,1.27
2022-11-01T01:45:51.629Z,1.85
2022-11-01T01:48:27.488Z,1.98
2022-11-01T01:51:00.007Z,1.95
2022-11-01T01:53:38.565Z,2.10
2022-11-01T01:56:30.944Z,1.45
2022-11-01T01:59:01.485Z,1.35
2022-11-01T02:01:29.225Z,1.42
2022-11-01T02:04:00.489Z,1.70
2022-11-01T02:06:27.774Z,1.75
2022-11-01T02:08:57.274Z,2.30
2022-11-01T02:11:24.338Z,2.20
2022-11-01T02:13:51.505Z,2.83
2022-11-01T02:16:56.041Z,2.83
2022-11-01T02:20:00.265Z,3.08
2022-11-01T02:23:18.997Z,4.10
2022-11-01T02:26:07.761Z,3.10
2022-11-01T02:28:37.332Z,3.08
2022-11-01T02:31:25.240Z,3.08
2022-11-01T02:33:57.918Z,3.47
2022-11-01T02:36:34.101Z,3.33
2022-11-01T02:39:29.348Z,2.90
2022-11-01T02:42:18.710Z,2.90
2022-11-01T02:44:51.247Z,3.70
2022-11-01T02:47:18.605Z,3.63
2022-11-01T02:49:48.188Z,2.97
2022-11-01T02:52:20.081Z,3.30
2022-11-01T02:54:56.692Z,3.00
2022-11-01T02:57:28.513Z,2.63
2022-11-01T03:00:03.059Z,3.40
2022-11-01T03:02:41.426Z,3.40
2022-11-01T03:05:23.615Z,3.60
2022-11-01T03:07:57.172Z,3.83
2022-11-01T03:10:30.087Z,3.10
2022-11-01T03:13:13.432Z,2.97
2022-11-01T03:15:51.388Z,3.53
2022-11-01T03:18:31.602Z,4.22
2022-11-01T03:21:15.655Z,3.33
2022-11-01T03:24:08.866Z,3.13
2022-11-01T03:26:37.295Z,3.20
2022-11-01T03:29:07.781Z,3.80
2022-11-01T03:31:37.819Z,2.97
2022-11-01T03:34:13.748Z,3.42
2022-11-01T03:36:47.091Z,2.50
2022-11-01T03:39:23.651Z,2.85
2022-11-01T03:41:54.923Z,2.72
2022-11-01T03:44:22.153Z,2.85
2022-11-01T03:46:50.472Z,3.00
2022-11-01T03:49:18.958Z,2.63
2022-11-01T03:51:46.605Z,2.67
2022-11-01T03:54:13.488Z,3.03
2022-11-01T03:56:43.050Z,3.22
2022-11-01T03:59:10.912Z,3.70
2022-11-01T04:01:37.908Z,2.75
2022-11-01T04:04:05.404Z,3.00
2022-11-01T04:06:32.215Z,3.15
2022-11-01T04:08:59.134Z,3.00
2022-11-01T04:11:26.092Z,2.55
2022-11-01T04:14:12.884Z,3.88
2022-11-01T04:16:58.444Z,3.65
2022-11-01T04:19:43.855Z,3.15
2022-11-01T04:22:10.937Z,3.00
2022-11-01T04:24:37.889Z,2.92
2022-11-01T04:27:04.781Z,2.92
2022-11-01T04:29:31.598Z,3.03
2022-11-01T04:31:58.438Z,3.00
2022-11-01T04:34:43.654Z,3.15
2022-11-01T04:37:11.837Z,3.50
2022-11-01T04:39:38.660Z,2.78
2022-11-01T04:42:05.828Z,2.63
2022-11-01T04:44:32.585Z,3.10
2022-11-01T04:46:59.411Z,3.83
2022-11-01T04:49:26.435Z,3.70
2022-11-01T04:51:53.332Z,3.45
2022-11-01T04:54:20.110Z,3.20
2022-11-01T04:56:46.995Z,3.03
2022-11-01T04:59:13.758Z,3.38
2022-11-01T05:01:40.688Z,3.55
2022-11-01T05:04:07.615Z,3.63
2022-11-01T05:06:34.643Z,3.55
2022-11-01T05:09:01.455Z,2.95
2022-11-01T05:11:28.393Z,3.42
2022-11-01T05:13:55.174Z,3.10
2022-11-01T05:16:21.987Z,2.88
2022-11-01T05:18:49.361Z,3.45
2022-11-01T05:21:16.178Z,3.38
2022-11-01T05:23:42.917Z,2.95
2022-11-01T05:26:09.812Z,3.75
2022-11-01T05:28:36.703Z,3.25
2022-11-01T05:31:03.523Z,3.20
2022-11-01T05:33:30.323Z,3.08
2022-11-01T05:36:00.009Z,3.15
2022-11-01T05:38:26.853Z,3.47
2022-11-01T05:40:53.691Z,3.20
2022-11-01T05:43:20.490Z,3.78
2022-11-01T05:45:47.276Z,3.28
2022-11-01T05:48:14.128Z,4.00
2022-11-01T05:50:43.068Z,3.58
2022-11-01T05:53:10.439Z,3.35
2022-11-01T05:55:37.876Z,3.45
2022-11-01T05:58:05.295Z,3.47
2022-11-01T06:00:33.459Z,3.55
2022-11-01T06:03:01.461Z,3.97
2022-11-01T06:05:29.717Z,3.28
2022-11-01T06:07:57.350Z,3.67
2022-11-01T06:10:24.219Z,3.58
2022-11-01T06:12:51.192Z,3.53
2022-11-01T06:15:17.984Z,3.20
2022-11-01T06:17:44.847Z,3.58
2022-11-01T06:20:12.196Z,3.20
2022-11-01T06:22:39.285Z,3.45
2022-11-01T06:25:06.925Z,3.67
2022-11-01T06:27:33.879Z,4.15
2022-11-01T06:30:00.803Z,3.75
2022-11-01T06:32:27.653Z,3.40
2022-11-01T06:34:54.484Z,3.60
2022-11-01T06:37:21.366Z,3.28
2022-11-01T06:39:48.182Z,3.83
2022-11-01T06:42:14.997Z,3.28
2022-11-01T06:44:41.850Z,3.83
2022-11-01T06:47:08.924Z,3.47
2022-11-01T06:49:35.697Z,3.15
2022-11-01T06:52:03.262Z,3.05
2022-11-01T06:54:30.313Z,3.97
2022-11-01T06:56:57.469Z,3.72
2022-11-01T06:59:24.950Z,3.72
2022-11-01T07:01:54.757Z,3.47
2022-11-01T07:04:21.751Z,3.40
2022-11-01T07:06:49.022Z,3.60
2022-11-01T07:09:15.879Z,3.60
2022-11-01T07:11:42.738Z,4.43
2022-11-01T07:14:09.979Z,4.07
2022-11-01T07:16:38.919Z,3.67
2022-11-01T07:19:05.849Z,4.15
2022-11-01T07:21:32.710Z,3.85
2022-11-01T07:23:59.580Z,3.70
2022-11-01T07:26:26.424Z,4.07
2022-11-01T07:28:53.204Z,3.60
2022-11-01T07:31:20.166Z,3.55
2022-11-01T07:33:46.928Z,3.55
2022-11-01T07:36:13.761Z,3.35
2022-11-01T07:38:40.592Z,3.35
2022-11-01T07:41:07.535Z,3.10
2022-11-01T07:43:35.769Z,3.83
2022-11-01T07:46:05.648Z,3.30
2022-11-01T07:48:33.359Z,3.15
2022-11-01T07:51:00.300Z,3.08
2022-11-01T07:53:27.155Z,3.95
2022-11-01T07:55:54.000Z,4.07
2022-11-01T07:58:20.798Z,3.63
2022-11-01T08:00:48.071Z,3.80
2022-11-01T08:03:18.211Z,4.45
2022-11-01T08:05:46.820Z,3.92
2022-11-01T08:08:15.060Z,3.50
2022-11-01T08:10:42.537Z,3.85
2022-11-01T08:13:18.772Z,3.85
2022-11-01T08:15:46.995Z,3.58
2022-11-01T08:18:14.771Z,4.10
2022-11-01T08:20:41.809Z,3.65
2022-11-01T08:23:09.202Z,3.70
2022-11-01T08:25:36.332Z,4.07
2022-11-01T08:28:05.495Z,3.22
2022-11-01T08:30:33.273Z,3.60
2022-11-01T08:33:02.118Z,3.42
2022-11-01T08:35:29.895Z,3.25
2022-11-01T08:37:59.021Z,3.85
2022-11-01T08:40:27.844Z,3.38
2022-11-01T08:42:55.062Z,3.35
2022-11-01T08:45:21.946Z,4.00
2022-11-01T08:47:48.723Z,3.42
2022-11-01T08:50:17.271Z,3.70
2022-11-01T08:52:44.220Z,3.40
2022-11-01T08:55:11.837Z,3.78
2022-11-01T08:57:39.027Z,3.30
2022-11-01T09:00:13.461Z,3.55
2022-11-01T09:02:40.421Z,3.92
2022-11-01T09:05:07.908Z,3.33
2022-11-01T09:07:35.606Z,3.65
2022-11-01T09:10:02.808Z,4.00
2022-11-01T09:12:29.805Z,2.88
2022-11-01T09:14:56.713Z,2.90
2022-11-01T09:17:23.700Z,3.53
2022-11-01T09:19:50.540Z,3.70
2022-11-01T09:22:17.517Z,3.55
2022-11-01T09:24:44.330Z,3.33
2022-11-01T09:27:11.337Z,3.72
2022-11-01T09:29:38.169Z,3.20
2022-11-01T09:32:06.774Z,2.70
2022-11-01T09:34:34.142Z,2.67
2022-11-01T09:37:01.110Z,3.05
2022-11-01T09:39:27.973Z,3.00
2022-11-01T09:42:10.967Z,3.50
2022-11-01T09:44:46.041Z,3.15
2022-11-01T09:47:20.922Z,3.10
2022-11-01T09:49:51.276Z,2.47
2022-11-01T09:52:23.843Z,3.45
2022-11-01T09:54:50.836Z,2.78
2022-11-01T09:57:40.634Z,2.53
2022-11-01T10:00:13.578Z,3.35
2022-11-01T10:03:06.717Z,3.08
2022-11-01T10:05:48.863Z,2.90
2022-11-01T10:08:54.605Z,2.60
2022-11-01T10:11:47.316Z,2.63
2022-11-01T10:14:29.212Z,2.35
2022-11-01T10:17:05.361Z,2.67
2022-11-01T10:19:35.305Z,2.75
2022-11-01T10:22:13.629Z,2.65
2022-11-01T10:24:55.785Z,3.08
2022-11-01T10:27:39.313Z,2.83
2022-11-01T10:30:15.959Z,3.13
2022-11-01T10:33:09.316Z,3.60
2022-11-01T10:35:41.131Z,3.42
2022-11-01T10:41:42.199Z,4.07
2022-11-01T10:44:29.721Z,3.55
2022-11-01T10:46:58.602Z,3.40
2022-11-01T10:50:00.123Z,3.33
2022-11-01T10:52:25.069Z,3.58
2022-11-01T10:54:53.194Z,3.47
2022-11-01T10:57:45.680Z,3.33
2022-11-01T11:00:18.296Z,3.65
2022-11-01T11:02:53.459Z,3.13
2022-11-01T11:05:23.310Z,3.30
2022-11-01T11:07:50.980Z,4.47
2022-11-01T11:10:24.907Z,3.22
2022-11-01T11:12:57.644Z,2.45
2022-11-01T11:15:41.920Z,2.30
2022-11-01T11:18:19.308Z,2.55
2022-11-01T11:20:55.249Z,2.20
2022-11-01T11:23:23.430Z,2.55
2022-11-01T11:25:50.713Z,2.92
2022-11-01T11:28:25.611Z,2.53
2022-11-01T11:30:53.228Z,2.50
2022-11-01T11:33:20.714Z,2.83
2022-11-01T11:35:57.776Z,2.67
2022-11-01T11:38:43.081Z,3.00
2022-11-01T11:41:12.112Z,2.20
2022-11-01T11:43:41.778Z,2.75
2022-11-01T11:46:21.031Z,2.38
2022-11-01T11:48:52.193Z,2.63
2022-11-01T11:51:20.789Z,2.63
2022-11-01T11:54:17.947Z,2.83
2022-11-01T11:56:46.208Z,2.22
2022-11-01T11:59:26.030Z,2.28
2022-11-01T12:02:02.159Z,2.15
2022-11-01T12:04:41.602Z,2.38
2022-11-01T12:07:34.332Z,3.03
2022-11-01T12:10:26.476Z,2.38
2022-11-01T12:12:56.811Z,2.42
2022-11-01T12:15:38.308Z,2.65
2022-11-01T12:18:16.261Z,2.20
2022-11-01T12:20:48.966Z,2.10
2022-11-01T12:23:15.737Z,2.50
2022-11-01T12:25:45.202Z,2.78
2022-11-01T12:28:16.227Z,2.80
2022-11-01T12:30:44.618Z,2.70
2022-11-01T12:33:18.242Z,2.55
2022-11-01T12:35:47.720Z,2.70
2022-11-01T12:38:35.536Z,2.65
2022-11-01T12:41:36.179Z,2.55
2022-11-01T12:44:31.590Z,3.05
2022-11-01T12:47:06.002Z,2.37
2022-11-01T12:50:00.749Z,2.35
2022-11-01T12:52:33.555Z,2.75
2022-11-01T12:55:06.835Z,2.17
2022-11-01T12:57:34.891Z,2.30
2022-11-01T13:00:01.994Z,2.10
2022-11-01T13:02:40.034Z,2.75
2022-11-01T13:05:19.990Z,3.20
2022-11-01T13:08:24.625Z,3.17
2022-11-01T13:10:52.830Z,2.47
2022-11-01T13:13:23.570Z,2.70
2022-11-01T13:15:58.511Z,2.17
2022-11-01T13:18:31.171Z,2.47
2022-11-01T13:21:14.590Z,2.33
2022-11-01T13:23:56.611Z,2.67
2022-11-01T13:26:36.961Z,2.10
2022-11-01T13:29:08.797Z,2.83
2022-11-01T13:31:40.170Z,2.67
2022-11-01T13:34:26.168Z,2.78
2022-11-01T13:37:12.046Z,2.97
2022-11-01T13:42:21.363Z,2.35
2022-11-01T13:44:57.548Z,2.95
2022-11-01T13:47:50.778Z,2.28
2022-11-01T13:50:35.746Z,3.05
2022-11-01T13:53:12.102Z,2.45
2022-11-01T13:55:47.240Z,2.70
2022-11-01T13:58:22.294Z,2.65
2022-11-01T14:00:54.315Z,2.20
2022-11-01T14:03:35.029Z,3.10
2022-11-01T14:06:08.345Z,2.58
2022-11-01T14:08:40.329Z,2.58
2022-11-01T14:11:11.338Z,2.83
2022-11-01T14:13:45.859Z,3.00
2022-11-01T14:16:15.535Z,2.63
2022-11-01T14:19:02.878Z,2.08
2022-11-01T14:21:32.187Z,3.13
2022-11-01T14:24:00.291Z,2.50
2022-11-01T14:26:48.709Z,2.70
2022-11-01T14:29:15.884Z,2.40
2022-11-01T14:31:46.047Z,2.58
2022-11-01T14:34:33.167Z,3.17
2022-11-01T14:37:09.728Z,2.67
2022-11-01T14:39:43.165Z,2.58
2022-11-01T14:42:15.262Z,2.20
2022-11-01T14:44:49.634Z,2.67
2022-11-01T14:50:22.161Z,2.50
2022-11-01T14:53:19.876Z,2.63
2022-11-01T14:55:46.943Z,2.95
2022-11-01T14:58:20.732Z,2.85
2022-11-01T15:00:53.084Z,2.80
2022-11-01T15:03:22.719Z,2.78
2022-11-01T15:05:52.771Z,3.45
2022-11-01T15:08:26.034Z,2.72
2022-11-01T15:10:56.116Z,2.92
2022-11-01T15:13:27.676Z,2.20
2022-11-01T15:16:03.628Z,2.67
2022-11-01T15:18:31.834Z,3.55
2022-11-01T15:21:00.418Z,2.72
2022-11-01T15:23:34.484Z,2.80
2022-11-01T15:26:07.204Z,2.70
2022-11-01T15:28:56.208Z,2.20
2022-11-01T15:31:23.643Z,3.22
2022-11-01T15:33:53.604Z,3.17
2022-11-01T15:36:26.897Z,2.63
2022-11-01T15:38:56.378Z,2.95
2022-11-01T15:41:33.122Z,2.92
2022-11-01T15:44:02.172Z,2.95
2022-11-01T15:46:33.315Z,2.83
2022-11-01T15:49:07.824Z,3.35
2022-11-01T15:51:40.271Z,2.38
2022-11-01T15:54:20.806Z,3.67
2022-11-01T15:56:52.977Z,2.47
2022-11-01T15:59:30.659Z,2.53
2022-11-01T16:02:01.062Z,2.90
2022-11-01T16:04:35.413Z,2.40
2022-11-01T16:07:07.218Z,2.90
2022-11-01T16:09:38.859Z,2.83
2022-11-01T16:12:15.617Z,2.65
2022-11-01T16:14:42.664Z,2.30
2022-11-01T16:17:24.639Z,2.45
2022-11-01T16:19:52.780Z,2.65
2022-11-01T16:22:33.766Z,2.42
2022-11-01T16:25:24.701Z,2.40
2022-11-01T16:28:05.998Z,2.33
2022-11-01T16:30:34.208Z,2.17
2022-11-01T16:33:35.741Z,2.40
2022-11-01T16:36:19.584Z,2.38
2022-11-01T16:38:47.423Z,2.35
2022-11-01T16:41:22.140Z,2.30
2022-11-01T16:43:53.604Z,2.40
2022-11-01T16:46:22.208Z,2.50
2022-11-01T16:48:53.782Z,2.75
2022-11-01T16:51:24.461Z,2.17
2022-11-01T16:53:51.599Z,2.47
2022-11-01T16:56:40.756Z,1.88
2022-11-01T16:59:24.755Z,2.13
2022-11-01T17:01:55.106Z,2.05
2022-11-01T17:04:22.705Z,2.03
2022-11-01T17:06:50.512Z,2.33
2022-11-01T17:09:19.684Z,2.10
2022-11-01T17:11:51.146Z,2.50
2022-11-01T17:14:19.562Z,2.75
2022-11-01T17:16:47.680Z,2.13
2022-11-01T17:19:22.839Z,2.67
2022-11-01T17:21:51.130Z,2.90
2022-11-01T17:24:22.787Z,2.10
2022-11-01T17:26:52.419Z,2.50
2022-11-01T17:29:19.231Z,1.90
2022-11-01T17:31:46.121Z,2.00
2022-11-01T17:34:13.009Z,2.42
2022-11-01T17:36:45.433Z,2.22
2022-11-01T17:39:12.349Z,1.95
2022-11-01T17:41:39.568Z,1.95
2022-11-01T17:44:06.741Z,2.00
2022-11-01T17:46:33.634Z,2.03
2022-11-01T17:49:00.662Z,2.10
2022-11-01T17:51:27.509Z,2.50
2022-11-01T17:53:55.837Z,3.33
2022-11-01T17:56:24.097Z,2.35
2022-11-01T17:58:53.491Z,2.00
2022-11-01T18:01:21.382Z,2.50
2022-11-01T18:03:49.606Z,2.25
2022-11-01T18:06:17.187Z,2.20
2022-11-01T18:08:46.997Z,2.47
2022-11-01T18:11:18.891Z,1.88
2022-11-01T18:14:04.251Z,2.92
2022-11-01T18:16:50.352Z,2.08
2022-11-01T18:19:36.221Z,3.45
2022-11-01T18:25:11.710Z,2.00
2022-11-01T18:27:38.862Z,2.40
2022-11-01T18:30:14.643Z,2.15
2022-11-01T18:33:09.552Z,2.38
2022-11-01T18:35:41.742Z,2.65
2022-11-01T18:38:14.331Z,2.30
2022-11-01T18:40:55.805Z,3.15
2022-11-01T18:43:23.551Z,3.05
2022-11-01T18:46:19.184Z,3.45
2022-11-01T18:48:37.798Z,3.55
2022-11-01T18:51:31.806Z,3.40
2022-11-01T18:54:27.112Z,3.60
2022-11-01T18:56:58.703Z,3.47
2022-11-01T18:59:31.616Z,4.28
2022-11-01T19:02:13.743Z,3.70
2022-11-01T19:04:42.776Z,3.75
2022-11-01T19:07:20.027Z,2.80
2022-11-01T19:09:56.540Z,3.88
2022-11-01T19:12:29.669Z,3.85
2022-11-01T19:15:11.546Z,4.05
2022-11-01T19:17:43.366Z,3.95
2022-11-01T19:20:32.794Z,3.78
2022-11-01T19:23:08.681Z,3.60
2022-11-01T19:25:37.244Z,3.50
2022-11-01T19:28:14.764Z,3.15
2022-11-01T19:30:49.248Z,2.00
2022-11-01T19:33:40.272Z,3.15
2022-11-01T19:36:19.522Z,2.50
2022-11-01T19:38:50.835Z,3.45
2022-11-01T19:41:30.262Z,2.22
2022-11-01T19:44:00.942Z,2.65
2022-11-01T19:46:27.776Z,2.45
2022-11-01T19:48:55.140Z,2.70
2022-11-01T19:51:26.603Z,2.45
2022-11-01T19:53:54.372Z,2.53
2022-11-01T19:56:23.660Z,2.45
2022-11-01T19:59:03.591Z,2.50
2022-11-01T20:01:41.255Z,2.58
2022-11-01T20:04:14.035Z,3.08
2022-11-01T20:06:56.026Z,2.90
2022-11-01T20:09:25.447Z,2.20
2022-11-01T20:11:52.881Z,2.92
2022-11-01T20:14:20.527Z,2.90
2022-11-01T20:16:47.363Z,2.80
2022-11-01T20:19:17.461Z,2.88
2022-11-01T20:21:45.480Z,2.90
2022-11-01T20:24:12.968Z,3.30
2022-11-01T20:26:40.063Z,2.70
2022-11-01T20:29:07.090Z,4.28
2022-11-01T20:31:33.996Z,2.22
2022-11-01T20:34:00.871Z,2.15
2022-11-01T20:36:28.440Z,2.33
2022-11-01T20:38:55.426Z,2.33
2022-11-01T20:41:22.466Z,2.22
2022-11-01T20:43:49.823Z,2.28
2022-11-01T20:46:16.817Z,2.33
2022-11-01T20:48:45.236Z,2.17
2022-11-01T20:51:13.574Z,2.45
2022-11-01T20:53:42.632Z,2.72
2022-11-01T20:56:10.292Z,2.30
2022-11-01T20:58:40.664Z,2.63
2022-11-01T21:01:18.447Z,2.40
2022-11-01T21:03:45.608Z,2.53
2022-11-01T21:06:17.759Z,2.40
2022-11-01T21:08:49.003Z,2.65
2022-11-01T21:11:43.777Z,2.80
2022-11-01T21:14:15.818Z,2.47
2022-11-01T21:16:43.464Z,2.05
2022-11-01T21:19:37.698Z,2.40
2022-11-01T21:22:10.742Z,2.22
2022-11-01T21:24:42.428Z,2.50
2022-11-01T21:27:12.280Z,1.13
2022-11-01T21:29:46.255Z,1.00
2022-11-01T21:32:27.009Z,1.27
2022-11-01T21:34:58.526Z,1.10
2022-11-01T21:37:29.755Z,1.55
2022-11-01T21:40:04.882Z,1.75
2022-11-01T21:42:35.596Z,1.63
2022-11-01T21:45:31.041Z,1.48
2022-11-01T21:48:18.707Z,1.37
2022-11-01T21:50:45.563Z,1.50
2022-11-01T21:53:12.323Z,1.60
2022-11-01T21:55:39.161Z,1.60
2022-11-01T21:58:06.139Z,1.55
2022-11-01T22:00:32.977Z,1.70
2022-11-01T22:02:59.867Z,1.73
2022-11-01T22:05:26.715Z,2.60
2022-11-01T22:07:53.472Z,2.75
2022-11-01T22:10:20.319Z,3.00
2022-11-01T22:12:47.196Z,2.67
2022-11-01T22:15:14.224Z,2.20
2022-11-01T22:17:40.971Z,2.92
2022-11-01T22:20:08.315Z,2.97
2022-11-01T22:22:35.103Z,2.95
2022-11-01T22:25:01.932Z,3.15
2022-11-01T22:27:28.726Z,2.97
2022-11-01T22:29:55.573Z,2.97
2022-11-01T22:32:22.334Z,3.03
2022-11-01T22:34:49.278Z,2.67
2022-11-01T22:37:16.053Z,3.90
2022-11-01T22:39:42.895Z,1.85
2022-11-01T22:42:14.634Z,1.95
2022-11-01T22:44:45.779Z,1.70
2022-11-01T22:47:42.625Z,2.10
2022-11-01T22:50:13.544Z,1.70
2022-11-01T22:52:43.884Z,1.63
2022-11-01T22:55:10.746Z,1.90
2022-11-01T22:57:49.512Z,1.70
2022-11-01T23:00:31.648Z,1.85
2022-11-01T23:03:20.723Z,2.28
2022-11-01T23:05:50.733Z,1.50
2022-11-01T23:08:33.025Z,1.48
2022-11-01T23:11:00.908Z,1.48
2022-11-01T23:13:52.393Z,2.33
2022-11-01T23:16:31.520Z,1.60
2022-11-01T23:19:01.403Z,1.48
2022-11-01T23:21:28.623Z,2.28
2022-11-01T23:23:55.610Z,2.22
2022-11-01T23:26:23.928Z,2.75
2022-11-01T23:28:54.239Z,1.98
2022-11-01T23:31:22.432Z,2.35
2022-11-01T23:33:50.711Z,2.13
2022-11-01T23:36:26.034Z,3.08
2022-11-01T23:39:09.563Z,2.38
2022-11-01T23:42:03.563Z,2.72
2022-11-01T23:44:34.457Z,2.50
2022-11-01T23:47:20.297Z,2.40
2022-11-01T23:49:55.457Z,2.20
2022-11-01T23:52:52.422Z,2.40
2022-11-01T23:55:29.876Z,2.28
2022-11-01T23:58:10.318Z,2.30
